createdAt,value
2016-07-29T00:01:19.373Z,91.29
2016-07-29T00:16:25.086Z,91.72
2016-07-29T00:46:19.413Z,91.37
2016-07-29T01:01:14.797Z,91.31
2016-07-29T01:16:21.111Z,91.22
2016-07-29T01:31:19.407Z,90.94
2016-07-29T01:46:27.813Z,91.46
2016-07-29T02:01:16.824Z,91.21
2016-07-29T02:16:19.455Z,91.43
2016-07-29T02:31:14.842Z,90.53
2016-07-29T02:46:14.836Z,91.1
2016-07-29T03:01:14.878Z,91.45
2016-07-29T03:16:14.852Z,91.28
2016-07-29T03:31:14.864Z,90.92
2016-07-29T03:46:14.874Z,91.05
2016-07-29T04:01:19.537Z,91.42
2016-07-29T04:16:14.895Z,90.91
2016-07-29T04:31:19.523Z,91.04
2016-07-29T04:46:19.535Z,91.41
2016-07-29T05:01:14.921Z,91.72
2016-07-29T05:16:14.963Z,91.56
2016-07-29T05:31:24.973Z,91.26
2016-07-29T05:46:14.954Z,91.2
2016-07-29T06:01:14.953Z,90.65
2016-07-29T06:16:19.598Z,90.05
2016-07-29T06:31:19.543Z,89.5
2016-07-29T06:46:19.542Z,89.56
2016-07-29T07:01:16.971Z,87.85
2016-07-29T07:16:19.632Z,86.79
2016-07-29T07:31:19.555Z,83.47
2016-07-29T07:46:18.984Z,80.53
2016-07-29T08:01:27.796Z,79.48
2016-07-29T08:16:20.064Z,74.56
2016-07-29T08:31:14.972Z,74.76
2016-07-29T08:46:19.924Z,77.52
2016-07-29T09:01:19.937Z,76.39
2016-07-29T09:16:19.986Z,78.66
2016-07-29T09:31:17.138Z,80.77
2016-07-29T09:46:17.143Z,79
2016-07-29T10:01:17.139Z,77.64
2016-07-29T10:16:15.059Z,73.14
2016-07-29T10:31:15.107Z,73.24
2016-07-29T10:46:15.064Z,71.8
2016-07-29T11:01:19.073Z,69.91
2016-07-29T11:16:27.906Z,66.99
2016-07-29T11:31:17.195Z,63.87
2016-07-29T11:46:21.195Z,61.42
2016-07-29T12:01:21.209Z,60.37
2016-07-29T12:16:19.695Z,64.56
2016-07-29T12:31:15.116Z,62.29
2016-07-29T12:46:19.729Z,58.36
2016-07-29T13:01:17.225Z,56.53
2016-07-29T13:16:15.142Z,58.4
2016-07-29T13:31:18.105Z,58.24
2016-07-29T13:46:15.158Z,63.6
2016-07-29T14:01:15.198Z,64.7
2016-07-29T14:16:15.167Z,63.49
2016-07-29T14:31:19.780Z,62.91
2016-07-29T14:46:17.185Z,62.29
2016-07-29T15:01:21.454Z,62.98
2016-07-29T15:16:19.841Z,62.3
2016-07-29T15:31:20.162Z,62.52
2016-07-29T15:46:20.166Z,65.94
2016-07-29T16:01:19.832Z,63.39
2016-07-29T16:16:20.241Z,62.48
2016-07-29T16:31:21.464Z,61.78
2016-07-29T16:46:21.613Z,62.9
2016-07-29T17:01:36.026Z,61.06
2016-07-29T17:16:15.328Z,61.71
2016-07-29T17:31:15.325Z,60.79
2016-07-29T17:46:31.903Z,60.18
2016-07-29T18:01:36.018Z,60.33
2016-07-29T18:16:15.407Z,59.61
2016-07-29T18:31:15.432Z,60.51
2016-07-29T18:46:15.418Z,62.39
2016-07-29T19:01:15.396Z,63.78
2016-07-29T19:16:15.393Z,65.27
2016-07-29T19:31:20.025Z,68.09
2016-07-29T19:46:15.335Z,70.31
2016-07-29T20:01:19.898Z,72.37
2016-07-29T20:16:15.313Z,73.8
2016-07-29T20:31:20.022Z,74.5
2016-07-29T20:46:15.475Z,75.52
2016-07-29T21:01:32.343Z,75.87
2016-07-29T21:16:28.338Z,75.73
2016-07-29T21:31:28.386Z,76.4
2016-07-29T21:46:21.750Z,77.1
2016-07-29T22:01:29.578Z,78.03
2016-07-29T22:16:17.610Z,78.65
2016-07-29T22:31:24.739Z,79.74
2016-07-29T22:46:20.180Z,79.54
2016-07-29T23:01:17.499Z,81.46
2016-07-29T23:16:28.763Z,80.3
2016-07-29T23:31:15.608Z,80.68
2016-07-29T23:46:34.015Z,80.24
